aviador You're here:

KLFI Decoded Metar

HAMPTON in VA, USA
Report Time2018-02-19 11:59:00
UTC Time2018-02-19 12:09:56
Flight Rules vfr VFR
Wind110° at 03 kt
W.Decomp.*RWY 08: 2.3 kt HW 1.9 kt RCW
W.Rank110° ranks 26
Current wind is below 110° avg. (6.9)
Visibility9999 m
Phenomena:Light Rain
Clouds:Overcast 046 Hf
Expected CloudBase > 800 ft AGL from Temp-Dew spread
Ceiling4,600 ft
Temp07°C (ISA -8)
Dew Point05°C (87% RH)
AAT4.8°C
QNH1033 hPa
Density Alt-1,509 ft
Elevation10 ft
Report Wrong Elevation
Raw Report
SPECI KLFI 191159Z AUTO 11003KT 10SM -RA OVC046 07/05 A3050 RMK AO2
RAB59 SLP335 $=

Extra information for KLFI:More info

Metar Taf Metar & Taf Last 4 Metars F.Rules Stats Wind Profile Meteogram Temp Stats Airport Information Weather charts Add Link Nearby VenuesMetar ALERT Operation Metar Decoded Social comments

AIRNAV info for KLFI